Terminal Aerodrome Forecast
Issued by NWS

Home | Current Version | Previous Version | Text Only | Print | Product List | Glossary Off
Versions: 1 2 3 4 5 6 7 8 9 10 11 12 13

570
FTUS43 KICT 070526
TAFHUT
TAF
KHUT 070526Z 0706/0806 22011KT P6SM SCT250
     FM070900 29007KT P6SM FEW250
     FM071200 32008KT P6SM SCT200
     FM071600 33014G21KT P6SM SCT100
     FM071800 32025G32KT P6SM SCT200
     FM080000 31020G27KT P6SM SKC=

USA.gov is the U.S. government's official web portal to all federal, state and local government web resources and services.